Fortune Wing — VRHW2 — position and weather

sailwx.info

Track history (hours):
 
Tides and Currents Weather Stations Pressure Air Temp Water Temp Dewpoint Dewpoint Depression Visibility Wind Speed Wind Dir Waves Ship Positions

Fortune Wing

Last reported at 2016-Aug-14 19:26 UTC. Time now 2016-Aug-25 09:44 UTC.
Position N 28°56' E 032°49'.
Warning: this ship's position is 10 days out of date.

Length 190 m; draft 12.6 m.

Type: Cargo ship. MMSI: 477389500.

Date/timePositionNaut miles runAvg speedWind from/ knotsBaromVisibWave heightAir tempDewpointWater temp
2016-Aug-14 19:26N 28°56' E 032°49'1112.4
2016-Aug-14 18:33N 29°07' E 032°46'138 6.5
2016-Aug-13 21:14N 31°23' E 032°18'0 0.0
2016-Aug-13 20:32N 31°23' E 032°18'0 0.0
2016-Aug-13 17:11N 31°23' E 032°18'1 0.3
2016-Aug-13 13:29N 31°24' E 032°18'16711.6
2016-Aug-12 23:09N 33°25' E 030°02'26212.1
2016-Aug-12 01:32N 36°50' E 026°43'3711.3
2016-Aug-11 22:17N 37°17' E 026°12'2011.5
2016-Aug-11 20:33N 37°29' E 025°52'1211.2
2016-Aug-11 19:32N 37°39' E 025°46'1111.6
2016-Aug-11 18:33N 37°49' E 025°40'1212.0
2016-Aug-11 17:32N 38°01' E 025°34'9811.7
2016-Aug-11 09:11N 39°39' E 025°43'812.0
2016-Aug-11 08:33N 39°46' E 025°46'1212.0
2016-Aug-11 07:32N 39°57' E 025°53'1211.8
2016-Aug-11 06:33N 40°01' E 026°07'11311.0
2016-Aug-10 20:18N 40°51' E 028°20'912.0
2016-Aug-10 19:33N 40°53' E 028°32'1111.5
2016-Aug-10 18:33N 40°55' E 028°47'8 6.3
2016-Aug-10 17:22N 40°58' E 028°56'0 0.0
2016-Aug-10 15:33N 40°58' E 028°56'0 0.0
2016-Aug-10 14:09N 40°58' E 028°56'0 0.1
2016-Aug-10 13:03N 40°58' E 028°56'0 0.0
2016-Aug-10 09:27N 40°58' E 028°56'0 0.0
2016-Aug-10 08:27N 40°58' E 028°56'0 0.1
2016-Aug-10 06:33N 40°58' E 028°56'1 1.2
2016-Aug-10 05:33N 40°58' E 028°58'  
Track history (hours):
 
Tides and Currents Weather Stations Pressure Air Temp Water Temp Dewpoint Dewpoint Depression Visibility Wind Speed Wind Dir Waves Ship Positions

Fortune Wing

Last reported at 2016-Aug-14 19:26 UTC. Time now 2016-Aug-25 09:44 UTC.
Position N 28°56' E 032°49'.
Warning: this ship's position is 10 days out of date.

Length 190 m; draft 12.6 m.

Type: Cargo ship. MMSI: 477389500.

Date/timePositionNaut miles runAvg speedWind from/ knotsBaromVisibWave heightAir tempDewpointWater temp
2016-Aug-14 19:26N 28°56' E 032°49'1112.4
2016-Aug-14 18:33N 29°07' E 032°46'138 6.5
2016-Aug-13 21:14N 31°23' E 032°18'0 0.0
2016-Aug-13 20:32N 31°23' E 032°18'0 0.0
2016-Aug-13 17:11N 31°23' E 032°18'1 0.3
2016-Aug-13 13:29N 31°24' E 032°18'16711.6
2016-Aug-12 23:09N 33°25' E 030°02'26212.1
2016-Aug-12 01:32N 36°50' E 026°43'3711.3
2016-Aug-11 22:17N 37°17' E 026°12'2011.5
2016-Aug-11 20:33N 37°29' E 025°52'1211.2
2016-Aug-11 19:32N 37°39' E 025°46'1111.6
2016-Aug-11 18:33N 37°49' E 025°40'1212.0
2016-Aug-11 17:32N 38°01' E 025°34'9811.7
2016-Aug-11 09:11N 39°39' E 025°43'812.0
2016-Aug-11 08:33N 39°46' E 025°46'1212.0
2016-Aug-11 07:32N 39°57' E 025°53'1211.8
2016-Aug-11 06:33N 40°01' E 026°07'11311.0
2016-Aug-10 20:18N 40°51' E 028°20'912.0
2016-Aug-10 19:33N 40°53' E 028°32'1111.5
2016-Aug-10 18:33N 40°55' E 028°47'8 6.3
2016-Aug-10 17:22N 40°58' E 028°56'0 0.0
2016-Aug-10 15:33N 40°58' E 028°56'0 0.0
2016-Aug-10 14:09N 40°58' E 028°56'0 0.1
2016-Aug-10 13:03N 40°58' E 028°56'0 0.0
2016-Aug-10 09:27N 40°58' E 028°56'0 0.0
2016-Aug-10 08:27N 40°58' E 028°56'0 0.1
2016-Aug-10 06:33N 40°58' E 028°56'1 1.2
2016-Aug-10 05:33N 40°58' E 028°58'  

Dump ship's entire track history